Time;durP1;ratioP1;P1;durP2;ratioP2;P2;SDS_P1;SDS_P2;PMS_P1;PMS_P2;Temp;Humidity;BMP_temperature;BMP_pressure;BME280_temperature;BME280_humidity;BME280_pressure;Samples;Min_cycle;Max_cycle;Signal;HPM_P1;HPM_P2
2021/12/31 00:00:06;;;;;;;55.08;23.33;;;;;;;;;;4994186;28;20524;-43
2021/12/31 00:02:32;;;;;;;40.53;19.90;;;;;;;;;;4994044;28;20041;-39
2021/12/31 00:04:57;;;;;;;45.80;20.25;;;;;;;;;;4993743;28;20378;-41
2021/12/31 00:07:23;;;;;;;43.78;19.45;;;;;;;;;;4994020;28;20030;-39
2021/12/31 00:09:48;;;;;;;43.88;19.67;;;;;;;;;;4993520;28;20027;-42
2021/12/31 00:12:14;;;;;;;40.63;19.05;;;;;;;;;;4993470;28;20684;-39
2021/12/31 00:14:39;;;;;;;40.42;18.83;;;;;;;;;;4993420;28;20056;-48
2021/12/31 00:17:05;;;;;;;39.92;17.92;;;;;;;;;;4993587;28;20018;-36
2021/12/31 00:19:33;;;;;;;40.03;18.88;;;;;;;;;;4993489;28;20437;-35
2021/12/31 00:22:10;;;;;;;37.03;16.35;;;;;;;;;;4993282;28;20027;-38
2021/12/31 00:24:36;;;;;;;45.67;20.17;;;;;;;;;;4993383;28;20453;-42
2021/12/31 00:27:01;;;;;;;42.60;20.23;;;;;;;;;;4993472;28;20414;-37
2021/12/31 00:29:27;;;;;;;50.10;22.80;;;;;;;;;;4993439;28;20088;-39
2021/12/31 00:31:53;;;;;;;51.60;21.88;;;;;;;;;;4993299;28;20876;-42
2021/12/31 00:34:18;;;;;;;46.50;20.92;;;;;;;;;;4992991;28;20061;-37
2021/12/31 00:36:45;;;;;;;48.13;21.27;;;;;;;;;;4993119;28;20031;-37
2021/12/31 00:39:11;;;;;;;46.70;20.77;;;;;;;;;;4992975;28;20030;-36
2021/12/31 00:41:37;;;;;;;43.20;20.60;;;;;;;;;;4992669;28;20109;-36
2021/12/31 00:44:03;;;;;;;44.67;20.23;;;;;;;;;;4992718;28;20117;-37
2021/12/31 00:46:30;;;;;;;43.10;19.33;;;;;;;;;;4992787;28;20026;-37
2021/12/31 00:48:57;;;;;;;42.70;20.67;;;;;;;;;;4992387;28;20022;-39
2021/12/31 00:51:23;;;;;;;42.05;19.20;;;;;;;;;;4992680;28;20548;-36
2021/12/31 00:53:48;;;;;;;43.83;21.33;;;;;;;;;;4992861;28;20034;-36
2021/12/31 00:56:14;;;;;;;38.65;19.40;;;;;;;;;;4992427;28;20474;-36
2021/12/31 00:58:39;;;;;;;41.67;20.55;;;;;;;;;;4992975;28;20041;-37
2021/12/31 01:01:05;;;;;;;33.25;16.35;;;;;;;;;;4992521;28;20109;-41
2021/12/31 01:03:31;;;;;;;44.03;21.00;;;;;;;;;;4992467;28;20038;-43
2021/12/31 01:05:56;;;;;;;40.53;19.88;;;;;;;;;;4992114;28;20685;-36
2021/12/31 01:08:21;;;;;;;41.28;20.85;;;;;;;;;;4992671;28;20028;-37
2021/12/31 01:10:47;;;;;;;40.10;19.92;;;;;;;;;;4992495;28;20018;-36
2021/12/31 01:13:22;;;;;;;45.63;20.92;;;;;;;;;;4992674;28;20106;-36
2021/12/31 01:15:50;;;;;;;36.72;19.35;;;;;;;;;;4992504;28;20054;-37
2021/12/31 01:18:20;;;;;;;40.85;19.52;;;;;;;;;;4992550;28;20030;-36
2021/12/31 01:20:46;;;;;;;39.78;20.25;;;;;;;;;;4992261;28;20073;-38
2021/12/31 01:23:14;;;;;;;45.78;20.92;;;;;;;;;;4992128;28;20035;-36
2021/12/31 01:25:39;;;;;;;40.30;20.10;;;;;;;;;;4991362;28;20400;-38
2021/12/31 01:28:05;;;;;;;43.17;21.33;;;;;;;;;;4992261;28;20027;-37
2021/12/31 01:30:31;;;;;;;42.90;21.08;;;;;;;;;;4991979;28;20386;-39
2021/12/31 01:32:56;;;;;;;46.00;21.65;;;;;;;;;;4992285;28;20030;-37
2021/12/31 01:35:22;;;;;;;44.97;20.85;;;;;;;;;;4992042;28;20026;-37
2021/12/31 01:37:47;;;;;;;33.83;17.88;;;;;;;;;;4992249;28;20104;-37
2021/12/31 01:40:13;;;;;;;40.55;19.88;;;;;;;;;;4992308;28;20022;-37
2021/12/31 01:42:39;;;;;;;46.83;23.08;;;;;;;;;;4992264;28;20382;-38
2021/12/31 01:45:13;;;;;;;45.42;22.75;;;;;;;;;;4992084;28;20019;-40
2021/12/31 01:50:28;;;;;;;45.58;22.35;;;;;;;;;;4991987;28;20057;-40
2021/12/31 01:52:54;;;;;;;39.95;22.17;;;;;;;;;;4991746;28;20092;-40
2021/12/31 01:55:22;;;;;;;41.35;21.40;;;;;;;;;;4990752;28;20121;-37
2021/12/31 01:57:48;;;;;;;43.80;22.08;;;;;;;;;;4992228;28;20382;-36
2021/12/31 02:00:14;;;;;;;39.28;21.52;;;;;;;;;;4993388;28;20119;-35
2021/12/31 02:02:52;;;;;;;41.20;22.95;;;;;;;;;;4995927;28;20030;-40
2021/12/31 02:05:18;;;;;;;46.85;22.55;;;;;;;;;;4996021;28;20062;-37
2021/12/31 02:07:43;;;;;;;44.00;23.33;;;;;;;;;;4995643;28;20414;-37
2021/12/31 02:10:09;;;;;;;50.70;23.10;;;;;;;;;;4994677;28;20080;-36
2021/12/31 02:12:40;;;;;;;48.67;24.33;;;;;;;;;;4995268;28;20058;-36
2021/12/31 02:15:06;;;;;;;54.97;24.65;;;;;;;;;;4992935;28;20414;-36
2021/12/31 02:17:31;;;;;;;42.03;22.23;;;;;;;;;;4995598;28;20472;-37
2021/12/31 02:20:04;;;;;;;48.17;23.15;;;;;;;;;;4995743;28;20165;-43
2021/12/31 02:22:30;;;;;;;49.83;25.10;;;;;;;;;;4995622;28;20046;-36
2021/12/31 02:24:57;;;;;;;51.78;23.52;;;;;;;;;;4995614;28;20030;-36
2021/12/31 02:27:24;;;;;;;51.30;25.30;;;;;;;;;;4995477;28;20433;-37
2021/12/31 02:29:50;;;;;;;54.38;25.30;;;;;;;;;;4995422;28;20033;-36
2021/12/31 02:32:15;;;;;;;49.60;24.95;;;;;;;;;;4995294;28;20037;-43
2021/12/31 02:34:41;;;;;;;48.58;24.88;;;;;;;;;;4995079;28;20030;-36
2021/12/31 02:37:07;;;;;;;55.10;25.10;;;;;;;;;;4995483;28;20034;-37
2021/12/31 02:39:34;;;;;;;49.25;24.95;;;;;;;;;;4993758;28;20455;-36
2021/12/31 02:42:00;;;;;;;56.55;25.30;;;;;;;;;;4995201;28;20044;-36
2021/12/31 02:44:25;;;;;;;55.53;25.63;;;;;;;;;;4995035;28;20105;-40
2021/12/31 02:46:51;;;;;;;50.42;24.70;;;;;;;;;;4995328;28;20039;-35
2021/12/31 02:49:19;;;;;;;51.28;24.58;;;;;;;;;;4994514;28;20026;-36
2021/12/31 02:51:45;;;;;;;61.50;26.25;;;;;;;;;;4995308;28;20030;-38
2021/12/31 02:54:12;;;;;;;51.45;26.08;;;;;;;;;;4995187;28;20129;-36
2021/12/31 02:56:37;;;;;;;50.80;25.40;;;;;;;;;;4994712;28;20360;-37
2021/12/31 02:59:03;;;;;;;59.72;28.08;;;;;;;;;;4995513;28;20081;-37
2021/12/31 03:01:29;;;;;;;61.00;27.17;;;;;;;;;;4995789;28;20065;-36
2021/12/31 03:03:56;;;;;;;50.70;26.58;;;;;;;;;;4996132;28;20026;-37
2021/12/31 03:06:22;;;;;;;52.92;25.85;;;;;;;;;;4996164;28;20477;-37
2021/12/31 03:08:48;;;;;;;44.28;21.70;;;;;;;;;;4995832;28;20758;-37
2021/12/31 03:11:18;;;;;;;54.15;28.42;;;;;;;;;;4995205;28;20117;-37
2021/12/31 03:13:45;;;;;;;55.22;26.70;;;;;;;;;;4995795;28;20381;-36
2021/12/31 03:16:11;;;;;;;42.97;24.05;;;;;;;;;;4995621;28;20042;-36
2021/12/31 03:18:36;;;;;;;52.17;26.17;;;;;;;;;;4995692;28;20026;-37
2021/12/31 03:21:09;;;;;;;49.50;24.55;;;;;;;;;;4995926;28;20037;-37
2021/12/31 03:23:34;;;;;;;50.13;23.50;;;;;;;;;;4995481;28;20030;-36
2021/12/31 03:26:00;;;;;;;47.83;23.13;;;;;;;;;;4994259;28;20030;-37
2021/12/31 03:28:26;;;;;;;51.45;25.50;;;;;;;;;;4995736;28;20053;-36
2021/12/31 03:30:52;;;;;;;56.83;26.40;;;;;;;;;;4995763;28;20026;-43
2021/12/31 03:33:17;;;;;;;45.75;25.60;;;;;;;;;;4995633;28;20038;-36
2021/12/31 03:35:43;;;;;;;50.15;26.67;;;;;;;;;;4995622;28;20066;-36
2021/12/31 03:38:09;;;;;;;48.45;21.38;;;;;;;;;;4995288;28;20386;-41
2021/12/31 03:40:35;;;;;;;47.53;24.27;;;;;;;;;;4995478;28;20026;-39
2021/12/31 03:43:00;;;;;;;50.35;27.75;;;;;;;;;;4995363;28;20120;-38
2021/12/31 03:45:26;;;;;;;51.97;26.45;;;;;;;;;;4995139;28;20548;-37
2021/12/31 03:47:51;;;;;;;49.97;26.08;;;;;;;;;;4994087;28;20023;-39
2021/12/31 03:50:17;;;;;;;52.63;26.95;;;;;;;;;;4994019;28;20038;-40
2021/12/31 03:52:43;;;;;;;56.72;26.48;;;;;;;;;;4994934;28;20042;-40
2021/12/31 03:55:10;;;;;;;50.85;25.15;;;;;;;;;;4994650;28;20077;-42
2021/12/31 03:57:37;;;;;;;42.67;23.20;;;;;;;;;;4992816;28;20034;-40
2021/12/31 04:00:06;;;;;;;45.17;24.08;;;;;;;;;;4994902;28;20616;-39
2021/12/31 04:02:32;;;;;;;45.00;22.98;;;;;;;;;;4994756;28;20041;-41
2021/12/31 04:04:57;;;;;;;44.13;22.45;;;;;;;;;;4994693;28;20031;-37
2021/12/31 04:07:23;;;;;;;45.08;22.05;;;;;;;;;;4994735;28;20077;-36
2021/12/31 04:09:49;;;;;;;40.47;21.67;;;;;;;;;;4994738;28;20054;-36
2021/12/31 04:12:14;;;;;;;39.72;21.33;;;;;;;;;;4994698;28;20041;-36
2021/12/31 04:14:40;;;;;;;36.42;20.95;;;;;;;;;;4994814;28;20041;-37
2021/12/31 04:17:05;;;;;;;39.25;21.13;;;;;;;;;;4994544;28;20092;-36
2021/12/31 04:19:31;;;;;;;38.33;21.20;;;;;;;;;;4993198;28;20120;-36
2021/12/31 04:21:57;;;;;;;43.70;23.75;;;;;;;;;;4994159;28;20026;-36
2021/12/31 04:26:54;;;;;;;41.25;22.83;;;;;;;;;;4994435;28;20023;-36
2021/12/31 04:29:19;;;;;;;38.20;20.52;;;;;;;;;;4994630;28;20372;-36
2021/12/31 04:31:45;;;;;;;38.58;22.13;;;;;;;;;;4994536;28;20467;-36
2021/12/31 04:34:10;;;;;;;45.08;22.98;;;;;;;;;;4994233;28;20450;-37
2021/12/31 04:36:37;;;;;;;35.08;21.15;;;;;;;;;;4994123;28;20033;-36
2021/12/31 04:39:06;;;;;;;40.95;22.98;;;;;;;;;;4994181;28;20038;-36
2021/12/31 04:41:31;;;;;;;38.80;22.20;;;;;;;;;;4994098;28;20037;-36
2021/12/31 04:43:57;;;;;;;38.38;21.35;;;;;;;;;;4994257;28;20034;-36
2021/12/31 04:46:22;;;;;;;40.90;22.17;;;;;;;;;;4994012;28;20037;-36
2021/12/31 04:48:48;;;;;;;38.70;21.73;;;;;;;;;;4994209;28;20125;-36
2021/12/31 04:51:13;;;;;;;41.65;21.98;;;;;;;;;;4993713;28;20371;-36
2021/12/31 04:53:39;;;;;;;34.53;20.55;;;;;;;;;;4994241;28;20117;-36
2021/12/31 04:56:04;;;;;;;39.55;22.45;;;;;;;;;;4993835;28;20026;-36
2021/12/31 04:58:30;;;;;;;41.17;21.70;;;;;;;;;;4993683;28;20037;-37
2021/12/31 05:00:55;;;;;;;39.67;22.88;;;;;;;;;;4993733;28;20027;-36
2021/12/31 05:03:20;;;;;;;39.65;20.98;;;;;;;;;;4993871;28;20037;-36
2021/12/31 05:05:46;;;;;;;37.05;21.42;;;;;;;;;;4993724;28;20429;-36
2021/12/31 05:08:12;;;;;;;35.00;20.85;;;;;;;;;;4993630;28;20065;-36
2021/12/31 05:10:37;;;;;;;39.50;21.38;;;;;;;;;;4993503;28;20072;-36
2021/12/31 05:13:04;;;;;;;38.92;21.20;;;;;;;;;;4993547;28;20022;-36
2021/12/31 05:15:35;;;;;;;38.05;20.73;;;;;;;;;;4993521;28;20038;-35
2021/12/31 05:18:01;;;;;;;35.13;19.63;;;;;;;;;;4993503;28;20026;-36
2021/12/31 05:20:27;;;;;;;35.75;17.92;;;;;;;;;;4993403;28;20088;-36
2021/12/31 05:22:53;;;;;;;26.95;16.65;;;;;;;;;;4993667;28;20031;-36
2021/12/31 05:25:21;;;;;;;34.45;17.42;;;;;;;;;;4993328;28;20501;-38
2021/12/31 05:27:47;;;;;;;27.67;17.27;;;;;;;;;;4993674;28;20038;-35
2021/12/31 05:30:13;;;;;;;30.52;16.67;;;;;;;;;;4993317;28;20103;-40
2021/12/31 05:32:38;;;;;;;37.20;17.63;;;;;;;;;;4993300;28;20031;-42
2021/12/31 05:35:04;;;;;;;24.65;14.68;;;;;;;;;;4993051;28;20030;-41
2021/12/31 05:37:30;;;;;;;27.80;16.88;;;;;;;;;;4993090;28;20037;-41
2021/12/31 05:39:55;;;;;;;28.23;16.58;;;;;;;;;;4993140;28;20382;-38
2021/12/31 05:42:23;;;;;;;23.88;15.55;;;;;;;;;;4993418;28;20146;-40
2021/12/31 05:44:49;;;;;;;28.58;16.33;;;;;;;;;;4993387;28;20088;-39
2021/12/31 05:47:15;;;;;;;26.60;16.63;;;;;;;;;;4993443;28;20030;-40
2021/12/31 05:49:41;;;;;;;30.23;16.23;;;;;;;;;;4992981;28;20453;-40
2021/12/31 05:52:09;;;;;;;24.27;14.40;;;;;;;;;;4993023;28;20046;-40
2021/12/31 05:54:34;;;;;;;26.75;15.57;;;;;;;;;;4993276;28;20022;-44
2021/12/31 05:57:00;;;;;;;28.30;15.13;;;;;;;;;;4993330;28;20033;-36
2021/12/31 05:59:25;;;;;;;26.77;15.45;;;;;;;;;;4993061;28;20030;-38
2021/12/31 06:01:51;;;;;;;27.77;15.60;;;;;;;;;;4992973;28;20026;-37
2021/12/31 06:04:16;;;;;;;24.10;15.27;;;;;;;;;;4993181;28;20042;-36
2021/12/31 06:06:43;;;;;;;24.67;14.60;;;;;;;;;;4993197;28;20027;-37
2021/12/31 06:09:09;;;;;;;23.38;14.00;;;;;;;;;;4993015;28;20105;-36
2021/12/31 06:11:34;;;;;;;23.40;14.20;;;;;;;;;;4992900;28;20137;-35
2021/12/31 06:14:03;;;;;;;27.50;15.35;;;;;;;;;;4992935;28;20034;-37
2021/12/31 06:16:35;;;;;;;23.40;14.10;;;;;;;;;;4992701;28;20022;-37
2021/12/31 06:19:05;;;;;;;25.90;15.27;;;;;;;;;;4993178;28;20031;-36
2021/12/31 06:21:33;;;;;;;22.00;14.73;;;;;;;;;;4992880;28;20070;-35
2021/12/31 06:23:59;;;;;;;25.20;14.23;;;;;;;;;;4992737;28;20073;-36
2021/12/31 06:26:24;;;;;;;21.73;13.55;;;;;;;;;;4992805;28;20109;-36
2021/12/31 06:28:50;;;;;;;26.05;15.55;;;;;;;;;;4992736;28;20027;-36
2021/12/31 06:31:16;;;;;;;23.90;14.48;;;;;;;;;;4993059;28;20033;-36
2021/12/31 06:33:41;;;;;;;27.20;15.30;;;;;;;;;;4992755;28;20026;-36
2021/12/31 06:36:07;;;;;;;24.65;14.82;;;;;;;;;;4993003;28;20029;-38
2021/12/31 06:38:32;;;;;;;25.98;14.88;;;;;;;;;;4992881;28;20026;-36
2021/12/31 06:40:58;;;;;;;28.42;15.60;;;;;;;;;;4993005;28;20030;-37
2021/12/31 06:43:23;;;;;;;24.45;14.80;;;;;;;;;;4992878;28;20034;-36
2021/12/31 06:45:51;;;;;;;26.27;15.13;;;;;;;;;;4993706;28;20037;-36
2021/12/31 06:48:17;;;;;;;25.80;14.30;;;;;;;;;;4996240;28;20018;-36
2021/12/31 06:50:42;;;;;;;27.67;14.50;;;;;;;;;;4995836;28;20482;-36
2021/12/31 06:53:07;;;;;;;23.20;13.32;;;;;;;;;;4996460;28;20037;-37
2021/12/31 06:55:33;;;;;;;22.33;12.88;;;;;;;;;;4996343;28;20026;-37
2021/12/31 06:57:59;;;;;;;23.80;13.70;;;;;;;;;;4996426;28;20030;-36
2021/12/31 07:00:25;;;;;;;22.00;13.60;;;;;;;;;;4995968;28;20478;-36
2021/12/31 07:02:50;;;;;;;23.83;14.45;;;;;;;;;;4996098;28;20037;-36
2021/12/31 07:05:17;;;;;;;18.52;12.00;;;;;;;;;;4996240;28;20022;-36
2021/12/31 07:07:42;;;;;;;14.45;10.02;;;;;;;;;;4996202;28;20018;-37
2021/12/31 07:10:08;;;;;;;16.60;10.07;;;;;;;;;;4996051;28;20161;-36
2021/12/31 07:12:34;;;;;;;16.00;9.93;;;;;;;;;;4996077;28;20484;-36
2021/12/31 07:14:59;;;;;;;15.20;10.18;;;;;;;;;;4995727;28;20026;-37
2021/12/31 07:17:28;;;;;;;14.55;9.77;;;;;;;;;;4996010;28;20022;-39
2021/12/31 07:19:54;;;;;;;14.52;9.52;;;;;;;;;;4995677;28;20018;-36
2021/12/31 07:22:19;;;;;;;14.55;9.43;;;;;;;;;;4995701;28;20529;-37
2021/12/31 07:24:44;;;;;;;14.68;9.13;;;;;;;;;;4995758;28;20023;-37
2021/12/31 07:27:10;;;;;;;13.93;9.88;;;;;;;;;;4995520;28;20057;-36
2021/12/31 07:29:35;;;;;;;13.07;8.52;;;;;;;;;;4995727;28;20027;-36
2021/12/31 07:32:01;;;;;;;12.15;8.13;;;;;;;;;;4995715;28;20434;-37
2021/12/31 07:34:26;;;;;;;12.50;8.48;;;;;;;;;;4995600;28;20347;-37
2021/12/31 07:36:52;;;;;;;12.23;8.20;;;;;;;;;;4995595;28;20489;-37
2021/12/31 07:39:20;;;;;;;10.38;8.05;;;;;;;;;;4995593;28;20018;-37
2021/12/31 07:41:45;;;;;;;9.85;7.70;;;;;;;;;;4995553;28;20390;-39
2021/12/31 07:44:11;;;;;;;11.18;7.68;;;;;;;;;;4995368;28;20030;-36
2021/12/31 07:46:36;;;;;;;9.70;7.50;;;;;;;;;;4994127;28;20019;-36
2021/12/31 07:49:02;;;;;;;9.02;6.72;;;;;;;;;;4994977;28;20032;-42
2021/12/31 07:51:28;;;;;;;10.25;7.72;;;;;;;;;;4994861;28;20046;-36
2021/12/31 07:53:53;;;;;;;10.77;7.63;;;;;;;;;;4995125;28;20032;-36
2021/12/31 07:56:19;;;;;;;9.80;7.53;;;;;;;;;;4993398;28;20125;-37
2021/12/31 07:58:46;;;;;;;15.93;7.45;;;;;;;;;;4993227;28;20382;-36
2021/12/31 08:01:11;;;;;;;9.38;7.20;;;;;;;;;;4993334;28;20038;-36
2021/12/31 08:03:37;;;;;;;8.73;6.90;;;;;;;;;;4994749;28;20034;-36
2021/12/31 08:06:02;;;;;;;12.15;7.55;;;;;;;;;;4994712;28;20042;-37
2021/12/31 08:08:28;;;;;;;9.13;7.25;;;;;;;;;;4993974;28;20073;-37
2021/12/31 08:10:53;;;;;;;9.60;7.47;;;;;;;;;;4994555;28;20030;-37
2021/12/31 08:13:19;;;;;;;9.25;7.35;;;;;;;;;;4993540;28;20031;-36
2021/12/31 08:15:44;;;;;;;7.88;7.07;;;;;;;;;;4993664;28;20088;-38
2021/12/31 08:18:10;;;;;;;8.98;7.55;;;;;;;;;;4994771;28;20154;-37
2021/12/31 08:20:36;;;;;;;9.10;7.45;;;;;;;;;;4994420;28;20072;-38
2021/12/31 08:23:07;;;;;;;7.60;6.80;;;;;;;;;;4994453;28;20437;-37
2021/12/31 08:25:32;;;;;;;9.18;7.80;;;;;;;;;;4994337;28;20038;-37
2021/12/31 08:27:57;;;;;;;10.23;7.38;;;;;;;;;;4994565;28;20026;-38
2021/12/31 08:30:23;;;;;;;8.60;7.35;;;;;;;;;;4994376;28;20098;-38
2021/12/31 08:32:48;;;;;;;8.25;7.45;;;;;;;;;;4994496;28;20034;-38
2021/12/31 08:35:14;;;;;;;9.60;7.72;;;;;;;;;;4994635;28;20026;-37
2021/12/31 08:37:39;;;;;;;9.70;8.00;;;;;;;;;;4994554;28;20050;-39
2021/12/31 08:40:06;;;;;;;8.27;7.32;;;;;;;;;;4994539;28;20433;-38
2021/12/31 08:42:32;;;;;;;10.43;8.07;;;;;;;;;;4994213;28;20036;-38
2021/12/31 08:44:57;;;;;;;8.98;8.07;;;;;;;;;;4994466;28;20026;-38
2021/12/31 08:47:23;;;;;;;9.13;8.23;;;;;;;;;;4994283;28;20089;-38
2021/12/31 08:49:49;;;;;;;9.00;8.10;;;;;;;;;;4994036;28;20093;-38
2021/12/31 08:52:15;;;;;;;8.40;7.50;;;;;;;;;;4993720;28;20049;-38
2021/12/31 08:54:41;;;;;;;9.07;7.95;;;;;;;;;;4993748;28;20490;-38
2021/12/31 08:57:07;;;;;;;8.77;7.88;;;;;;;;;;4993881;28;20041;-38
2021/12/31 08:59:32;;;;;;;9.90;8.43;;;;;;;;;;4993905;28;20025;-38
2021/12/31 09:01:58;;;;;;;9.10;7.45;;;;;;;;;;4994042;28;20038;-38
2021/12/31 09:04:24;;;;;;;12.85;8.02;;;;;;;;;;4993756;28;20113;-38
2021/12/31 09:06:50;;;;;;;8.65;7.45;;;;;;;;;;4993766;28;20110;-39
2021/12/31 09:09:16;;;;;;;8.43;7.38;;;;;;;;;;4993482;28;20034;-39
2021/12/31 09:11:43;;;;;;;8.90;7.32;;;;;;;;;;4993711;28;20355;-38
2021/12/31 09:14:09;;;;;;;8.02;6.82;;;;;;;;;;4993827;28;20113;-38
2021/12/31 09:16:34;;;;;;;8.68;7.22;;;;;;;;;;4992140;28;20542;-39
2021/12/31 09:19:00;;;;;;;9.13;7.75;;;;;;;;;;4992582;28;20034;-37
2021/12/31 09:21:25;;;;;;;8.85;7.43;;;;;;;;;;4992269;28;20035;-38
2021/12/31 09:23:51;;;;;;;9.32;7.53;;;;;;;;;;4992893;28;20359;-37
2021/12/31 09:26:16;;;;;;;7.82;7.03;;;;;;;;;;4991871;28;20022;-37
2021/12/31 09:28:42;;;;;;;8.35;7.18;;;;;;;;;;4993090;28;20026;-38
2021/12/31 09:31:10;;;;;;;8.95;7.47;;;;;;;;;;4993425;28;20033;-37
2021/12/31 09:33:35;;;;;;;8.50;7.15;;;;;;;;;;4993233;28;20023;-38
2021/12/31 09:36:01;;;;;;;9.73;7.40;;;;;;;;;;4993109;28;20382;-37
2021/12/31 09:38:26;;;;;;;8.00;7.20;;;;;;;;;;4992964;28;20038;-37
2021/12/31 09:40:53;;;;;;;7.68;6.78;;;;;;;;;;4993211;28;20031;-37
2021/12/31 09:43:19;;;;;;;8.32;7.20;;;;;;;;;;4992949;28;20502;-37
2021/12/31 09:45:47;;;;;;;9.77;7.35;;;;;;;;;;4992961;28;20037;-38
2021/12/31 09:48:18;;;;;;;11.10;6.72;;;;;;;;;;4992590;28;20022;-39
2021/12/31 09:50:47;;;;;;;8.27;7.43;;;;;;;;;;4992929;28;20048;-38
2021/12/31 09:53:14;;;;;;;7.63;6.80;;;;;;;;;;4993096;28;20030;-38
2021/12/31 09:55:45;;;;;;;9.18;7.47;;;;;;;;;;4992915;28;20759;-38
2021/12/31 09:58:13;;;;;;;7.45;6.60;;;;;;;;;;4992782;28;20057;-37
2021/12/31 10:00:51;;;;;;;8.70;6.70;;;;;;;;;;4992701;28;20054;-38
2021/12/31 10:03:22;;;;;;;9.63;6.85;;;;;;;;;;4992987;28;20027;-38
2021/12/31 10:05:55;;;;;;;7.85;6.68;;;;;;;;;;4993188;28;20027;-38
2021/12/31 10:08:29;;;;;;;8.05;6.57;;;;;;;;;;4991737;28;20030;-38
2021/12/31 10:11:19;;;;;;;7.18;6.35;;;;;;;;;;4992173;28;20482;-37
2021/12/31 10:14:01;;;;;;;14.10;6.35;;;;;;;;;;4993074;28;20045;-38
2021/12/31 10:16:37;;;;;;;10.00;6.68;;;;;;;;;;4993192;28;20387;-37
2021/12/31 10:19:21;;;;;;;8.73;5.68;;;;;;;;;;4992855;28;20077;-38
2021/12/31 10:21:50;;;;;;;7.00;5.75;;;;;;;;;;4995555;28;20045;-38
2021/12/31 10:24:19;;;;;;;8.40;5.78;;;;;;;;;;4996671;28;20023;-38
2021/12/31 10:26:44;;;;;;;6.60;5.90;;;;;;;;;;4996648;28;20462;-37
2021/12/31 10:29:10;;;;;;;7.68;5.88;;;;;;;;;;4996766;28;20037;-38
2021/12/31 10:31:45;;;;;;;7.13;6.05;;;;;;;;;;4996859;28;20378;-43
2021/12/31 10:34:34;;;;;;;6.75;6.05;;;;;;;;;;4994777;28;20068;-45
2021/12/31 10:37:02;;;;;;;5.63;5.03;;;;;;;;;;4996913;28;20030;-45
2021/12/31 10:39:31;;;;;;;6.00;5.40;;;;;;;;;;4995199;28;20496;-40
2021/12/31 10:42:04;;;;;;;6.32;5.72;;;;;;;;;;4996335;28;20034;-42
2021/12/31 10:44:51;;;;;;;7.75;6.40;;;;;;;;;;4996634;28;20035;-41
2021/12/31 10:47:23;;;;;;;6.35;5.70;;;;;;;;;;4996462;28;20029;-38
2021/12/31 10:50:00;;;;;;;6.60;5.90;;;;;;;;;;4996211;28;20018;-38
2021/12/31 10:52:45;;;;;;;7.75;6.07;;;;;;;;;;4996177;28;20549;-39
2021/12/31 10:55:26;;;;;;;7.07;5.95;;;;;;;;;;4996419;28;20038;-39
2021/12/31 10:58:00;;;;;;;7.70;6.18;;;;;;;;;;4994884;28;20385;-39
2021/12/31 11:00:30;;;;;;;8.38;5.88;;;;;;;;;;4995693;28;20022;-40
2021/12/31 11:02:56;;;;;;;7.82;6.40;;;;;;;;;;4996540;28;20081;-39
2021/12/31 11:05:23;;;;;;;9.90;6.63;;;;;;;;;;4996291;28;20456;-38
2021/12/31 11:07:50;;;;;;;10.23;6.90;;;;;;;;;;4995920;28;20018;-37
2021/12/31 11:10:16;;;;;;;8.63;6.43;;;;;;;;;;4995840;28;20504;-38
2021/12/31 11:12:47;;;;;;;10.48;6.50;;;;;;;;;;4995897;28;20073;-38
2021/12/31 11:15:13;;;;;;;9.88;6.32;;;;;;;;;;4995696;28;20067;-37
2021/12/31 11:17:39;;;;;;;6.38;5.70;;;;;;;;;;4995666;28;20030;-36
2021/12/31 11:20:06;;;;;;;19.80;5.97;;;;;;;;;;4995739;28;20118;-38
2021/12/31 11:22:32;;;;;;;7.25;5.75;;;;;;;;;;4995424;28;20034;-38
2021/12/31 11:25:19;;;;;;;5.50;4.90;;;;;;;;;;4994426;28;20018;-38
2021/12/31 11:27:47;;;;;;;7.95;5.25;;;;;;;;;;4995523;28;20478;-38
2021/12/31 11:30:26;;;;;;;7.32;5.93;;;;;;;;;;4995682;28;20037;-38
2021/12/31 11:32:56;;;;;;;5.55;5.05;;;;;;;;;;4995028;28;20359;-51
2021/12/31 11:35:40;;;;;;;7.00;4.95;;;;;;;;;;4995425;28;20045;-46
2021/12/31 11:38:29;;;;;;;5.85;5.15;;;;;;;;;;4995447;28;20026;-38
2021/12/31 11:41:08;;;;;;;5.63;4.95;;;;;;;;;;4989506;28;20038;-50
2021/12/31 11:43:35;;;;;;;6.70;4.90;;;;;;;;;;4995389;28;20037;-48
2021/12/31 11:46:12;;;;;;;5.15;4.55;;;;;;;;;;4995309;28;20027;-52
2021/12/31 11:48:44;;;;;;;7.28;5.72;;;;;;;;;;4995373;28;20034;-51
2021/12/31 11:51:55;;;;;;;7.65;5.53;;;;;;;;;;4994747;28;20195;-40
2021/12/31 11:54:21;;;;;;;6.80;5.10;;;;;;;;;;4990475;28;20041;-46
2021/12/31 11:56:49;;;;;;;7.57;5.35;;;;;;;;;;4994900;28;20034;-45
2021/12/31 11:59:16;;;;;;;6.32;5.18;;;;;;;;;;4994400;28;20027;-48
2021/12/31 12:01:47;;;;;;;6.22;5.22;;;;;;;;;;4994878;28;20053;-39
2021/12/31 12:04:34;;;;;;;6.97;5.00;;;;;;;;;;4994797;28;20033;-39
2021/12/31 12:07:05;;;;;;;16.45;4.78;;;;;;;;;;4995025;28;20064;-39
2021/12/31 12:09:36;;;;;;;6.07;5.18;;;;;;;;;;4994905;28;20037;-39
2021/12/31 12:12:10;;;;;;;4.55;4.13;;;;;;;;;;4994767;28;20023;-38
2021/12/31 12:14:42;;;;;;;5.53;4.45;;;;;;;;;;4994608;28;20030;-39
2021/12/31 12:17:09;;;;;;;4.93;4.10;;;;;;;;;;4994927;28;20058;-44
2021/12/31 12:19:47;;;;;;;4.40;4.00;;;;;;;;;;4994775;28;20026;-48
2021/12/31 12:22:32;;;;;;;5.05;3.75;;;;;;;;;;4994845;28;20105;-47
2021/12/31 12:25:04;;;;;;;4.57;3.95;;;;;;;;;;4993264;28;20100;-42
2021/12/31 12:27:30;;;;;;;4.47;3.72;;;;;;;;;;4994433;28;20177;-48
2021/12/31 12:29:57;;;;;;;5.50;4.57;;;;;;;;;;4994452;28;20074;-49
2021/12/31 12:32:33;;;;;;;5.53;4.20;;;;;;;;;;4994259;28;20034;-46
2021/12/31 12:34:59;;;;;;;5.53;4.88;;;;;;;;;;4994622;28;20070;-46
2021/12/31 12:37:28;;;;;;;8.38;4.20;;;;;;;;;;4994417;28;20034;-40
2021/12/31 12:40:02;;;;;;;5.28;4.22;;;;;;;;;;4994152;28;20466;-46
2021/12/31 12:42:28;;;;;;;5.60;4.13;;;;;;;;;;4994152;28;20039;-48
2021/12/31 12:45:11;;;;;;;4.20;3.80;;;;;;;;;;4992369;28;20033;-48
2021/12/31 12:47:37;;;;;;;5.88;3.90;;;;;;;;;;4994062;28;20034;-47
2021/12/31 12:50:09;;;;;;;4.45;4.00;;;;;;;;;;4993832;28;20466;-42
2021/12/31 12:52:35;;;;;;;6.63;4.32;;;;;;;;;;4993955;28;20121;-49
2021/12/31 12:55:17;;;;;;;4.97;4.18;;;;;;;;;;4994070;28;20026;-47
2021/12/31 12:57:52;;;;;;;7.63;4.43;;;;;;;;;;4994186;28;20097;-42
2021/12/31 13:00:17;;;;;;;5.65;4.38;;;;;;;;;;4994030;28;20459;-49
2021/12/31 13:02:45;;;;;;;5.75;4.28;;;;;;;;;;4993110;28;20121;-45
2021/12/31 13:05:14;;;;;;;5.38;4.20;;;;;;;;;;4993305;28;20030;-42
2021/12/31 13:07:53;;;;;;;4.75;4.22;;;;;;;;;;4993948;28;20026;-37
2021/12/31 13:10:22;;;;;;;6.72;4.25;;;;;;;;;;4993565;28;20608;-44
2021/12/31 13:12:48;;;;;;;4.60;3.90;;;;;;;;;;4993536;28;20044;-41
2021/12/31 13:15:13;;;;;;;4.55;4.15;;;;;;;;;;4993556;28;20113;-44
2021/12/31 13:17:39;;;;;;;5.13;4.03;;;;;;;;;;4993478;28;20062;-38
2021/12/31 13:20:13;;;;;;;7.55;4.90;;;;;;;;;;4993502;28;20100;-44
2021/12/31 13:22:40;;;;;;;7.60;4.10;;;;;;;;;;4993579;28;20026;-45
2021/12/31 13:25:07;;;;;;;4.85;4.35;;;;;;;;;;4993529;28;20105;-42
2021/12/31 13:27:37;;;;;;;5.45;4.40;;;;;;;;;;4993306;28;20022;-46
2021/12/31 13:30:08;;;;;;;5.75;4.60;;;;;;;;;;4993063;28;20026;-40
2021/12/31 13:32:42;;;;;;;8.18;4.68;;;;;;;;;;4993042;28;20026;-37
2021/12/31 13:35:12;;;;;;;6.68;4.80;;;;;;;;;;4993363;28;20168;-37
2021/12/31 13:37:38;;;;;;;;;;;;;;;;;;4991528;28;20458;-38
2021/12/31 13:40:09;;;;;;;6.40;4.70;;;;;;;;;;4992576;28;19920;-39
2021/12/31 13:42:36;;;;;;;6.93;4.95;;;;;;;;;;4991843;28;20394;-37
2021/12/31 13:45:02;;;;;;;7.05;4.95;;;;;;;;;;4992849;28;20449;-38
2021/12/31 13:47:28;;;;;;;8.18;5.53;;;;;;;;;;4991284;28;20438;-39
2021/12/31 13:49:58;;;;;;;7.60;5.78;;;;;;;;;;4992527;28;20052;-37
2021/12/31 13:52:34;;;;;;;7.43;5.40;;;;;;;;;;4992334;28;20096;-39
2021/12/31 13:55:19;;;;;;;6.60;5.72;;;;;;;;;;4993687;28;20026;-38
2021/12/31 13:58:13;;;;;;;7.28;5.60;;;;;;;;;;4998672;28;20030;-37
2021/12/31 14:00:40;;;;;;;8.43;5.55;;;;;;;;;;4998087;28;20057;-42
2021/12/31 14:03:16;;;;;;;7.28;5.35;;;;;;;;;;4999839;28;20430;-42
2021/12/31 14:05:47;;;;;;;6.72;5.25;;;;;;;;;;4998584;28;20026;-43
2021/12/31 14:08:29;;;;;;;;;;;;;;;;;;4999915;28;20101;-42
2021/12/31 14:10:55;;;;;;;7.10;5.32;;;;;;;;;;4998240;28;19913;-43
2021/12/31 14:13:20;;;;;;;6.40;5.15;;;;;;;;;;4999490;28;20117;-43
2021/12/31 14:15:45;;;;;;;9.60;5.10;;;;;;;;;;4999807;28;20509;-46
2021/12/31 14:18:13;;;;;;;8.13;5.72;;;;;;;;;;4999657;28;20385;-46
2021/12/31 14:20:40;;;;;;;6.95;4.97;;;;;;;;;;4999406;28;20109;-42
2021/12/31 14:23:07;;;;;;;8.27;5.22;;;;;;;;;;4999646;28;20038;-43
2021/12/31 14:25:40;;;;;;;6.15;5.40;;;;;;;;;;4999653;28;20038;-45
2021/12/31 14:28:07;;;;;;;7.30;4.88;;;;;;;;;;4999612;28;20026;-45
2021/12/31 14:30:33;;;;;;;5.70;4.72;;;;;;;;;;4999274;28;20046;-47
2021/12/31 14:32:59;;;;;;;5.32;4.80;;;;;;;;;;4999186;28;20030;-41
2021/12/31 14:35:35;;;;;;;6.32;4.93;;;;;;;;;;4999322;28;20113;-47
2021/12/31 14:38:04;;;;;;;7.82;4.90;;;;;;;;;;4999297;28;20025;-41